createdAt,value
2023-01-13T00:01:41.805Z,10.96
2023-01-13T00:04:10.708Z,10.94
2023-01-13T00:06:38.952Z,10.90
2023-01-13T00:09:06.880Z,11.06
2023-01-13T00:11:36.513Z,11.08
2023-01-13T00:14:05.106Z,11.06
2023-01-13T00:16:32.924Z,11.01
2023-01-13T00:19:00.861Z,11.07
2023-01-13T00:21:28.833Z,10.99
2023-01-13T00:23:56.742Z,11.01
2023-01-13T00:26:27.855Z,10.98
2023-01-13T00:29:00.120Z,11.10
2023-01-13T00:31:29.407Z,11.09
2023-01-13T00:33:59.994Z,11.04
2023-01-13T00:36:28.802Z,11.02
2023-01-13T00:38:56.735Z,11.00
2023-01-13T00:41:29.321Z,11.12
2023-01-13T00:43:56.315Z,11.08
2023-01-13T00:46:26.033Z,11.06
2023-01-13T00:48:54.265Z,11.08
2023-01-13T00:51:24.349Z,11.12
2023-01-13T00:53:53.109Z,11.08
2023-01-13T00:56:40.819Z,11.10
2023-01-13T00:59:12.034Z,11.05
2023-01-13T01:01:42.231Z,11.15
2023-01-13T01:04:29.130Z,11.12
2023-01-13T01:06:57.182Z,11.13
2023-01-13T01:09:32.715Z,11.24
2023-01-13T01:12:03.732Z,11.20
2023-01-13T01:14:31.570Z,11.18
2023-01-13T01:17:01.590Z,11.21
2023-01-13T01:19:30.068Z,11.23
2023-01-13T01:21:58.309Z,11.23
2023-01-13T01:24:26.146Z,11.20
2023-01-13T01:26:54.103Z,11.20
2023-01-13T01:29:22.281Z,11.27
2023-01-13T01:31:50.186Z,11.34
2023-01-13T01:34:20.004Z,11.32
2023-01-13T01:36:47.858Z,11.28
2023-01-13T01:39:15.958Z,11.20
2023-01-13T01:42:04.851Z,11.24
2023-01-13T01:44:56.612Z,11.31
2023-01-13T01:47:27.382Z,11.29
2023-01-13T01:49:59.152Z,11.32
2023-01-13T01:52:33.472Z,11.30
2023-01-13T01:55:04.526Z,11.23
2023-01-13T01:57:37.959Z,11.28
2023-01-13T02:00:08.390Z,11.28
2023-01-13T02:02:46.054Z,11.26
2023-01-13T02:05:15.728Z,11.26
2023-01-13T02:07:49.922Z,11.31
2023-01-13T02:10:20.993Z,11.41
2023-01-13T02:12:50.164Z,11.41
2023-01-13T02:15:22.038Z,11.39
2023-01-13T02:18:07.777Z,11.42
2023-01-13T02:21:22.628Z,11.48
2023-01-13T02:24:25.956Z,11.51
2023-01-13T02:27:32.471Z,11.37
2023-01-13T02:30:50.728Z,11.35
2023-01-13T02:33:33.096Z,11.36
2023-01-13T02:36:07.319Z,11.35
2023-01-13T02:38:39.465Z,11.47
2023-01-13T02:41:30.934Z,11.47
2023-01-13T02:44:10.572Z,11.43
2023-01-13T02:46:50.706Z,11.43
2023-01-13T02:49:25.728Z,11.37
2023-01-13T02:51:58.405Z,11.46
2023-01-13T02:54:30.755Z,11.41
2023-01-13T02:57:08.188Z,11.35
2023-01-13T02:59:40.172Z,11.37
2023-01-13T03:02:14.499Z,11.37
2023-01-13T03:04:52.614Z,11.36
2023-01-13T03:07:55.647Z,11.41
2023-01-13T03:10:35.022Z,11.37
2023-01-13T03:13:15.653Z,11.35
2023-01-13T03:15:51.946Z,11.42
2023-01-13T03:18:31.332Z,11.39
2023-01-13T03:21:08.499Z,11.36
2023-01-13T03:23:41.726Z,11.42
2023-01-13T03:26:17.551Z,11.39
2023-01-13T03:28:52.489Z,11.39
2023-01-13T03:31:26.731Z,11.41
2023-01-13T03:34:00.740Z,11.45
2023-01-13T03:36:31.517Z,11.42
2023-01-13T03:39:08.714Z,11.44
2023-01-13T03:41:43.094Z,11.33
2023-01-13T03:44:28.038Z,11.47
2023-01-13T03:47:05.385Z,11.42
2023-01-13T03:49:40.504Z,11.43
2023-01-13T03:52:13.166Z,11.44
2023-01-13T03:54:47.790Z,11.51
2023-01-13T03:57:21.146Z,11.42
2023-01-13T03:59:55.990Z,11.37
2023-01-13T04:02:37.802Z,11.38
2023-01-13T04:05:10.371Z,11.31
2023-01-13T04:07:48.096Z,11.40
2023-01-13T04:10:21.443Z,11.41
2023-01-13T04:13:04.181Z,11.42
2023-01-13T04:15:35.823Z,11.61
2023-01-13T04:18:11.958Z,11.61
2023-01-13T04:20:46.483Z,11.57
2023-01-13T04:23:15.149Z,11.47
2023-01-13T04:25:44.668Z,11.48
2023-01-13T04:28:14.485Z,11.46
2023-01-13T04:30:43.283Z,11.47
2023-01-13T04:33:11.866Z,11.44
2023-01-13T04:35:42.302Z,11.40
2023-01-13T04:38:14.040Z,11.32
2023-01-13T04:40:43.095Z,11.36
2023-01-13T04:43:11.239Z,11.34
2023-01-13T04:45:39.333Z,11.30
2023-01-13T04:48:07.837Z,11.34
2023-01-13T04:50:38.655Z,11.44
2023-01-13T04:53:07.109Z,11.38
2023-01-13T04:55:36.715Z,11.39
2023-01-13T04:58:06.025Z,11.37
2023-01-13T05:00:34.351Z,11.41
2023-01-13T05:03:03.503Z,11.42
2023-01-13T05:05:32.132Z,11.45
2023-01-13T05:08:00.683Z,11.50
2023-01-13T05:10:30.791Z,11.48
2023-01-13T05:13:17.661Z,11.55
2023-01-13T05:16:18.284Z,11.53
2023-01-13T05:18:47.708Z,11.50
2023-01-13T05:21:35.447Z,11.45
2023-01-13T05:24:21.031Z,11.53
2023-01-13T05:26:49.092Z,11.51
2023-01-13T05:29:19.630Z,11.59
2023-01-13T05:31:47.821Z,11.44
2023-01-13T05:34:16.762Z,11.35
2023-01-13T05:36:45.153Z,11.36
2023-01-13T05:39:14.079Z,11.27
2023-01-13T05:41:59.776Z,11.27
2023-01-13T05:44:29.631Z,11.29
2023-01-13T05:46:57.679Z,11.31
2023-01-13T05:49:26.018Z,11.23
2023-01-13T05:51:53.968Z,11.18
2023-01-13T05:54:21.948Z,11.27
2023-01-13T05:56:53.908Z,11.20
2023-01-13T05:59:22.896Z,11.03
2023-01-13T06:01:52.443Z,10.71
2023-01-13T06:04:20.640Z,10.61
2023-01-13T06:06:48.854Z,10.53
2023-01-13T06:09:16.975Z,10.58
2023-01-13T06:11:45.205Z,10.56
2023-01-13T06:14:13.862Z,10.62
2023-01-13T06:16:45.387Z,10.60
2023-01-13T06:19:14.842Z,10.53
2023-01-13T06:21:44.843Z,10.46
2023-01-13T06:24:14.050Z,10.35
2023-01-13T06:26:42.808Z,10.30
2023-01-13T06:29:15.002Z,10.29
2023-01-13T06:31:43.296Z,10.24
2023-01-13T06:34:15.752Z,10.15
2023-01-13T06:36:50.887Z,10.12
2023-01-13T06:39:23.238Z,10.16
2023-01-13T06:42:12.876Z,10.05
2023-01-13T06:44:40.798Z,10.06
2023-01-13T06:47:14.219Z,10.00
2023-01-13T06:49:43.610Z,10.00
2023-01-13T06:52:11.811Z,10.03
2023-01-13T06:54:39.715Z,9.95
2023-01-13T06:57:09.892Z,9.91
2023-01-13T06:59:38.202Z,9.89
2023-01-13T07:02:06.299Z,9.88
2023-01-13T07:04:34.358Z,9.84
2023-01-13T07:07:03.754Z,9.81
2023-01-13T07:09:32.033Z,9.73
2023-01-13T07:12:00.245Z,9.74
2023-01-13T07:14:48.215Z,9.65
2023-01-13T07:17:16.821Z,9.60
2023-01-13T07:19:44.786Z,9.53
2023-01-13T07:22:16.458Z,9.48
2023-01-13T07:24:44.691Z,9.45
2023-01-13T07:27:12.788Z,9.64
2023-01-13T07:29:41.285Z,9.50
2023-01-13T07:32:09.238Z,9.52
2023-01-13T07:34:37.777Z,9.46
2023-01-13T07:37:06.083Z,9.55
2023-01-13T07:39:35.646Z,9.53
2023-01-13T07:42:20.925Z,9.54
2023-01-13T07:44:48.774Z,9.54
2023-01-13T07:47:17.320Z,9.53
2023-01-13T07:49:50.005Z,9.48
2023-01-13T07:52:18.305Z,9.52
2023-01-13T07:54:47.464Z,9.46
2023-01-13T07:57:15.841Z,9.41
2023-01-13T07:59:43.878Z,9.49
2023-01-13T08:02:13.350Z,9.32
2023-01-13T08:04:41.761Z,9.32
2023-01-13T08:07:10.590Z,9.25
2023-01-13T08:09:41.589Z,9.27
2023-01-13T08:12:30.931Z,9.31
2023-01-13T08:15:01.579Z,9.35
2023-01-13T08:17:29.750Z,9.42
2023-01-13T08:20:00.118Z,9.48
2023-01-13T08:22:31.004Z,9.49
2023-01-13T08:25:01.828Z,9.47
2023-01-13T08:27:31.311Z,9.46
2023-01-13T08:29:59.412Z,9.43
2023-01-13T08:32:27.524Z,9.44
2023-01-13T08:34:56.796Z,9.44
2023-01-13T08:37:24.795Z,9.50
2023-01-13T08:39:54.922Z,9.58
2023-01-13T08:42:23.346Z,9.58
2023-01-13T08:44:54.451Z,9.59
2023-01-13T08:47:22.581Z,9.61
2023-01-13T08:49:52.845Z,9.72
2023-01-13T08:52:21.241Z,9.66
2023-01-13T08:54:49.344Z,9.65
2023-01-13T08:57:19.402Z,9.65
2023-01-13T08:59:47.633Z,9.70
2023-01-13T09:02:20.788Z,9.65
2023-01-13T09:04:49.928Z,9.66
2023-01-13T09:07:20.749Z,9.68
2023-01-13T09:09:48.854Z,9.62
2023-01-13T09:12:36.937Z,9.66
2023-01-13T09:15:06.453Z,9.70
2023-01-13T09:17:35.932Z,9.74
2023-01-13T09:20:03.959Z,9.69
2023-01-13T09:22:32.328Z,9.79
2023-01-13T09:25:00.196Z,9.84
2023-01-13T09:27:30.422Z,9.74
2023-01-13T09:29:58.837Z,9.77
2023-01-13T09:32:28.977Z,9.75
2023-01-13T09:35:02.705Z,9.77
2023-01-13T09:37:36.534Z,9.74
2023-01-13T09:40:07.389Z,9.81
2023-01-13T09:43:04.030Z,9.75
2023-01-13T09:45:39.156Z,9.75
2023-01-13T09:48:13.624Z,9.76
2023-01-13T09:50:52.725Z,9.88
2023-01-13T09:53:30.520Z,9.95
2023-01-13T09:55:59.270Z,10.13
2023-01-13T09:58:28.095Z,10.31
2023-01-13T10:01:12.679Z,10.36
2023-01-13T10:03:41.517Z,10.33
2023-01-13T10:06:16.554Z,10.47
2023-01-13T10:08:46.181Z,10.55
2023-01-13T10:11:35.615Z,10.50
2023-01-13T10:14:11.239Z,10.57
2023-01-13T10:16:45.947Z,10.49
2023-01-13T10:19:19.769Z,10.58
2023-01-13T10:22:07.269Z,10.67
2023-01-13T10:24:54.678Z,10.83
2023-01-13T10:27:30.348Z,10.85
2023-01-13T10:29:58.257Z,10.82
2023-01-13T10:32:26.125Z,10.94
2023-01-13T10:34:57.152Z,10.92
2023-01-13T10:37:28.796Z,10.84
2023-01-13T10:40:03.927Z,10.76
2023-01-13T10:42:35.493Z,10.84
2023-01-13T10:45:05.869Z,11.03
2023-01-13T10:47:35.889Z,11.09
2023-01-13T10:50:22.833Z,11.15
2023-01-13T10:53:01.123Z,11.30
2023-01-13T10:55:32.135Z,11.46
2023-01-13T10:58:15.200Z,11.75
2023-01-13T11:00:43.979Z,11.86
2023-01-13T11:03:21.021Z,11.94
2023-01-13T11:05:51.247Z,11.83
2023-01-13T11:08:23.092Z,11.87
2023-01-13T11:10:53.883Z,11.68
2023-01-13T11:13:29.253Z,11.68
2023-01-13T11:16:02.005Z,11.56
2023-01-13T11:18:41.106Z,11.57
2023-01-13T11:21:18.482Z,11.65
2023-01-13T11:23:53.433Z,11.70
2023-01-13T11:26:27.795Z,11.86
2023-01-13T11:29:04.227Z,12.13
2023-01-13T11:31:37.693Z,12.43
2023-01-13T11:34:15.112Z,12.49
2023-01-13T11:36:49.347Z,12.58
2023-01-13T11:39:28.547Z,12.63
2023-01-13T11:42:17.043Z,12.57
2023-01-13T11:44:52.046Z,12.56
2023-01-13T11:47:24.709Z,12.67
2023-01-13T11:49:52.902Z,12.83
2023-01-13T11:52:29.027Z,12.58
2023-01-13T11:55:17.218Z,12.45
2023-01-13T11:58:08.405Z,12.38
2023-01-13T12:00:47.546Z,12.35
2023-01-13T12:03:25.661Z,12.48
2023-01-13T12:06:13.857Z,12.48
2023-01-13T12:09:01.234Z,12.64
2023-01-13T12:11:55.597Z,12.72
2023-01-13T12:14:37.309Z,12.95
2023-01-13T12:17:19.474Z,13.17
2023-01-13T12:19:52.300Z,13.33
2023-01-13T12:22:26.869Z,13.43
2023-01-13T12:25:00.585Z,13.48
2023-01-13T12:27:40.034Z,13.24
2023-01-13T12:30:23.388Z,13.13
2023-01-13T12:32:55.874Z,13.03
2023-01-13T12:35:36.184Z,12.83
2023-01-13T12:38:11.270Z,12.74
2023-01-13T12:40:56.643Z,12.70
2023-01-13T12:43:47.180Z,12.53
2023-01-13T12:46:50.725Z,12.57
2023-01-13T12:49:24.995Z,12.56
2023-01-13T12:52:15.669Z,12.58
2023-01-13T12:55:15.922Z,12.56
2023-01-13T12:58:13.938Z,12.52
2023-01-13T13:00:59.352Z,12.59
2023-01-13T13:03:33.758Z,12.83
2023-01-13T13:06:19.479Z,13.14
2023-01-13T13:09:04.981Z,13.44
2023-01-13T13:12:03.845Z,13.56
2023-01-13T13:15:04.390Z,13.53
2023-01-13T13:18:08.731Z,13.32
2023-01-13T13:21:11.468Z,13.27
2023-01-13T13:23:48.472Z,13.10
2023-01-13T13:26:25.012Z,13.33
2023-01-13T13:29:10.839Z,13.13
2023-01-13T13:32:00.452Z,13.02
2023-01-13T13:34:45.530Z,12.82
2023-01-13T13:37:59.894Z,12.66
2023-01-13T13:40:49.269Z,12.43
2023-01-13T13:43:36.741Z,12.36
2023-01-13T13:46:41.804Z,12.06
2023-01-13T13:49:09.831Z,12.03
2023-01-13T13:51:46.410Z,11.94
2023-01-13T13:54:19.640Z,11.78
2023-01-13T13:56:50.234Z,11.77
2023-01-13T13:59:20.775Z,11.76
2023-01-13T14:02:00.943Z,11.61
2023-01-13T14:04:35.461Z,11.20
2023-01-13T14:07:17.929Z,11.29
2023-01-13T14:09:47.486Z,11.67
2023-01-13T14:12:20.334Z,12.00
2023-01-13T14:14:51.075Z,12.33
2023-01-13T14:17:25.014Z,12.30
2023-01-13T14:19:54.653Z,12.41
2023-01-13T14:22:24.392Z,12.34
2023-01-13T14:24:55.745Z,12.01
2023-01-13T14:27:27.379Z,11.69
2023-01-13T14:29:58.076Z,11.41
2023-01-13T14:32:32.321Z,11.13
2023-01-13T14:35:00.512Z,11.03
2023-01-13T14:37:38.539Z,10.94
2023-01-13T14:40:07.346Z,10.86
2023-01-13T14:42:36.093Z,10.81
2023-01-13T14:45:20.378Z,10.63
2023-01-13T14:47:53.851Z,10.97
2023-01-13T14:50:29.465Z,11.01
2023-01-13T14:53:00.678Z,11.19
2023-01-13T14:55:31.098Z,11.32
2023-01-13T14:58:25.742Z,11.34
2023-01-13T15:01:27.525Z,11.54
2023-01-13T15:03:55.834Z,11.29
2023-01-13T15:06:25.479Z,11.16
2023-01-13T15:08:55.650Z,10.94
2023-01-13T15:11:28.118Z,10.74
2023-01-13T15:14:01.244Z,10.65
2023-01-13T15:16:33.826Z,10.72
2023-01-13T15:19:03.401Z,10.49
2023-01-13T15:21:31.345Z,10.31
2023-01-13T15:24:02.105Z,10.28
2023-01-13T15:26:31.371Z,10.25
2023-01-13T15:29:00.646Z,10.17
2023-01-13T15:31:30.056Z,10.11
2023-01-13T15:33:58.816Z,10.07
2023-01-13T15:36:29.844Z,10.00
2023-01-13T15:38:58.908Z,10.06
2023-01-13T15:41:45.880Z,10.15
2023-01-13T15:44:33.305Z,10.05
2023-01-13T15:47:04.552Z,10.03
2023-01-13T15:49:36.749Z,9.93
2023-01-13T15:52:05.968Z,10.03
2023-01-13T15:54:33.778Z,9.86
2023-01-13T15:57:03.414Z,9.85
2023-01-13T15:59:31.585Z,9.83
2023-01-13T16:01:59.577Z,9.83
2023-01-13T16:04:27.679Z,9.85
2023-01-13T16:06:55.671Z,9.82
2023-01-13T16:09:23.706Z,9.85
2023-01-13T16:11:51.822Z,9.83
2023-01-13T16:14:21.245Z,9.83
2023-01-13T16:16:52.113Z,9.75
2023-01-13T16:19:20.423Z,9.70
2023-01-13T16:21:48.399Z,9.74
2023-01-13T16:24:16.601Z,9.81
2023-01-13T16:26:49.160Z,9.71
2023-01-13T16:29:17.234Z,9.64
2023-01-13T16:31:46.590Z,9.66
2023-01-13T16:34:14.656Z,9.68
2023-01-13T16:36:46.338Z,9.68
2023-01-13T16:39:21.968Z,9.69
2023-01-13T16:41:49.963Z,9.66
2023-01-13T16:44:18.067Z,9.63
2023-01-13T16:46:47.891Z,9.70
2023-01-13T16:49:19.018Z,9.69
2023-01-13T16:51:47.648Z,9.73
2023-01-13T16:54:15.931Z,9.76
2023-01-13T16:56:44.805Z,9.64
2023-01-13T16:59:15.266Z,9.57
2023-01-13T17:01:45.858Z,9.65
2023-01-13T17:04:19.447Z,9.60
2023-01-13T17:06:55.981Z,9.59
2023-01-13T17:09:26.712Z,9.51
2023-01-13T17:11:57.716Z,9.59
2023-01-13T17:14:26.066Z,9.60
2023-01-13T17:16:58.104Z,9.47
2023-01-13T17:19:27.467Z,9.47
2023-01-13T17:21:55.438Z,9.51
2023-01-13T17:24:26.158Z,9.49
2023-01-13T17:26:54.090Z,9.48
2023-01-13T17:29:25.741Z,9.53
2023-01-13T17:31:54.647Z,9.58
2023-01-13T17:34:23.578Z,9.52
2023-01-13T17:36:55.379Z,9.52
2023-01-13T17:39:25.512Z,9.70
2023-01-13T17:41:55.890Z,9.62
2023-01-13T17:44:24.066Z,9.57
2023-01-13T17:46:52.003Z,9.67
2023-01-13T17:49:21.777Z,9.65
2023-01-13T17:51:51.398Z,9.49
2023-01-13T17:54:22.533Z,9.47
2023-01-13T17:56:50.530Z,9.44
2023-01-13T17:59:20.428Z,9.43
2023-01-13T18:01:48.940Z,9.52
2023-01-13T18:04:22.347Z,9.50
2023-01-13T18:06:53.474Z,9.36
2023-01-13T18:09:25.964Z,9.30
2023-01-13T18:11:56.124Z,9.31
2023-01-13T18:14:24.608Z,9.23
2023-01-13T18:16:53.052Z,9.25
2023-01-13T18:19:38.462Z,9.41
2023-01-13T18:22:36.221Z,9.33
2023-01-13T18:25:25.082Z,9.38
2023-01-13T18:27:53.275Z,9.44
2023-01-13T18:30:21.447Z,9.38
2023-01-13T18:32:49.476Z,9.43
2023-01-13T18:35:17.835Z,9.47
2023-01-13T18:37:46.350Z,9.53
2023-01-13T18:40:17.753Z,9.50
2023-01-13T18:42:55.146Z,9.41
2023-01-13T18:45:25.788Z,9.42
2023-01-13T18:47:54.930Z,9.42
2023-01-13T18:50:28.217Z,9.46
2023-01-13T18:52:56.736Z,9.52
2023-01-13T18:55:28.473Z,9.41
2023-01-13T18:57:58.051Z,9.36
2023-01-13T19:00:27.132Z,9.41
2023-01-13T19:05:35.937Z,9.53
2023-01-13T19:08:05.272Z,9.54
2023-01-13T19:10:36.251Z,9.39
2023-01-13T19:13:04.369Z,9.39
2023-01-13T19:15:33.856Z,9.53
2023-01-13T19:18:02.229Z,9.49
2023-01-13T19:20:30.438Z,9.42
2023-01-13T19:22:58.564Z,9.38
2023-01-13T19:25:26.931Z,9.51
2023-01-13T19:27:56.445Z,9.45
2023-01-13T19:30:24.454Z,9.40
2023-01-13T19:32:54.702Z,9.38
2023-01-13T19:35:25.118Z,9.28
2023-01-13T19:37:53.890Z,9.35
2023-01-13T19:40:22.373Z,9.48
2023-01-13T19:43:08.337Z,9.39
2023-01-13T19:45:56.637Z,9.37
2023-01-13T19:48:26.346Z,9.39
2023-01-13T19:50:54.326Z,9.39
2023-01-13T19:53:22.458Z,9.34
2023-01-13T19:55:51.649Z,9.28
2023-01-13T19:58:20.400Z,9.31
2023-01-13T20:00:48.613Z,9.24
2023-01-13T20:03:20.547Z,9.22
2023-01-13T20:05:48.655Z,9.22
2023-01-13T20:08:16.776Z,9.32
2023-01-13T20:10:46.401Z,9.25
2023-01-13T20:13:15.033Z,9.20
2023-01-13T20:15:44.308Z,9.22
2023-01-13T20:18:12.509Z,9.26
2023-01-13T20:20:45.290Z,9.24
2023-01-13T20:23:15.382Z,9.21
2023-01-13T20:25:43.937Z,9.26
2023-01-13T20:28:12.065Z,9.35
2023-01-13T20:30:41.546Z,9.30
2023-01-13T20:33:12.309Z,9.36
2023-01-13T20:35:41.592Z,9.36
2023-01-13T20:38:11.665Z,9.33
2023-01-13T20:40:40.247Z,9.40
2023-01-13T20:43:07.663Z,9.56
2023-01-13T20:45:35.589Z,9.41
2023-01-13T20:48:08.685Z,9.30
2023-01-13T20:50:37.307Z,9.43
2023-01-13T20:53:05.499Z,9.38
2023-01-13T20:55:34.994Z,9.40
2023-01-13T20:58:03.155Z,9.48
2023-01-13T21:00:31.013Z,9.40
2023-01-13T21:02:59.913Z,9.34
2023-01-13T21:05:29.740Z,9.36
2023-01-13T21:07:57.687Z,9.36
2023-01-13T21:10:25.568Z,9.30
2023-01-13T21:13:12.746Z,9.43
2023-01-13T21:15:41.157Z,9.26
2023-01-13T21:18:27.243Z,9.20
2023-01-13T21:21:11.509Z,9.25
2023-01-13T21:23:40.925Z,9.35
2023-01-13T21:26:09.797Z,9.20
2023-01-13T21:28:40.393Z,9.21
2023-01-13T21:31:10.314Z,9.21
2023-01-13T21:33:39.360Z,9.17
2023-01-13T21:36:09.892Z,9.06
2023-01-13T21:38:40.134Z,9.03
2023-01-13T21:41:14.340Z,9.08
2023-01-13T21:44:03.630Z,9.14
2023-01-13T21:46:51.455Z,8.98
2023-01-13T21:49:19.470Z,9.03
2023-01-13T21:51:47.308Z,9.06
2023-01-13T21:54:15.562Z,9.11
2023-01-13T21:56:43.538Z,9.08
2023-01-13T21:59:12.981Z,9.09
2023-01-13T22:02:23.400Z,9.11
2023-01-13T22:04:29.277Z,8.98
2023-01-13T22:06:59.816Z,9.03
2023-01-13T22:09:28.028Z,9.13
2023-01-13T22:11:55.791Z,9.03
2023-01-13T22:14:25.617Z,9.08
2023-01-13T22:16:54.470Z,8.87
2023-01-13T22:19:25.585Z,8.82
2023-01-13T22:21:53.643Z,8.90
2023-01-13T22:24:25.280Z,8.85
2023-01-13T22:26:53.223Z,8.72
2023-01-13T22:29:21.261Z,8.63
2023-01-13T22:31:51.098Z,8.69
2023-01-13T22:34:21.515Z,8.62
2023-01-13T22:36:51.664Z,8.67
2023-01-13T22:39:19.755Z,8.57
2023-01-13T22:41:47.801Z,8.45
2023-01-13T22:44:16.394Z,8.44
2023-01-13T22:46:44.575Z,8.55
2023-01-13T22:49:18.115Z,8.40
2023-01-13T22:51:46.371Z,8.43
2023-01-13T22:54:15.561Z,8.47
2023-01-13T22:56:43.675Z,8.48
2023-01-13T22:59:14.368Z,8.60
2023-01-13T23:01:42.955Z,8.65
2023-01-13T23:04:14.030Z,8.63
2023-01-13T23:06:43.837Z,8.63
2023-01-13T23:09:12.044Z,8.65
2023-01-13T23:11:41.541Z,8.60
2023-01-13T23:14:13.630Z,8.58
2023-01-13T23:16:42.647Z,8.54
2023-01-13T23:19:13.120Z,8.61
2023-01-13T23:21:41.369Z,8.57
2023-01-13T23:24:11.099Z,8.54
2023-01-13T23:26:39.225Z,8.53
2023-01-13T23:29:09.912Z,8.51
2023-01-13T23:31:37.950Z,8.43
2023-01-13T23:34:05.847Z,8.32
2023-01-13T23:36:37.075Z,8.35
2023-01-13T23:39:05.774Z,8.39
2023-01-13T23:41:34.892Z,8.48
2023-01-13T23:44:03.205Z,8.44
2023-01-13T23:46:33.905Z,8.45
2023-01-13T23:49:02.583Z,8.38
2023-01-13T23:51:33.936Z,8.47
2023-01-13T23:54:01.876Z,8.44
2023-01-13T23:56:31.884Z,8.50
2023-01-13T23:59:01.607Z,8.45
